createdAt,value
2019-01-05T00:00:17.037Z,3.70
2019-01-05T00:02:46.766Z,3.70
2019-01-05T00:05:17.485Z,3.70
2019-01-05T00:07:46.361Z,3.70
2019-01-05T00:10:20.681Z,3.80
2019-01-05T00:12:49.536Z,3.70
2019-01-05T00:15:21.344Z,3.70
2019-01-05T00:17:53.952Z,3.80
2019-01-05T00:20:23.683Z,3.80
2019-01-05T00:22:52.526Z,3.70
2019-01-05T00:25:26.378Z,3.80
2019-01-05T00:28:00.046Z,3.80
2019-01-05T00:30:30.472Z,3.70
2019-01-05T00:33:04.830Z,3.70
2019-01-05T00:35:38.256Z,3.70
2019-01-05T00:38:09.953Z,3.70
2019-01-05T00:40:39.696Z,3.70
2019-01-05T00:43:12.480Z,3.70
2019-01-05T00:45:42.793Z,3.80
2019-01-05T00:48:12.400Z,3.90
2019-01-05T00:50:44.078Z,3.90
2019-01-05T00:53:18.478Z,3.80
2019-01-05T00:55:52.828Z,3.90
2019-01-05T00:58:24.446Z,3.90
2019-01-05T01:00:58.156Z,3.80
2019-01-05T01:03:32.632Z,3.80
2019-01-05T01:06:02.380Z,3.80
2019-01-05T01:08:32.184Z,3.80
2019-01-05T01:11:01.033Z,3.90
2019-01-05T01:13:30.727Z,3.80
2019-01-05T01:16:03.376Z,3.80
2019-01-05T01:18:33.089Z,3.80
2019-01-05T01:21:05.662Z,3.80
2019-01-05T01:23:40.475Z,3.80
2019-01-05T01:26:09.387Z,3.80
2019-01-05T01:28:42.876Z,3.80
2019-01-05T01:31:17.339Z,3.80
2019-01-05T01:33:47.106Z,3.80
2019-01-05T01:36:15.961Z,3.80
2019-01-05T01:38:44.800Z,3.90
2019-01-05T01:41:20.864Z,3.90
2019-01-05T01:43:50.494Z,3.80
2019-01-05T01:46:25.957Z,3.80
2019-01-05T01:49:00.342Z,3.90
2019-01-05T01:51:29.177Z,3.90
2019-01-05T01:53:59.908Z,3.80
2019-01-05T01:56:28.752Z,3.80
2019-01-05T01:58:58.570Z,3.80
2019-01-05T02:01:28.252Z,3.80
2019-01-05T02:04:03.374Z,3.70
2019-01-05T02:06:37.648Z,3.70
2019-01-05T02:09:09.417Z,3.70
2019-01-05T02:11:38.252Z,3.70
2019-01-05T02:14:07.822Z,3.70
2019-01-05T02:16:37.550Z,3.70
2019-01-05T02:19:06.453Z,3.70
2019-01-05T02:24:29.726Z,3.70
2019-01-05T02:30:07.342Z,3.70
2019-01-05T02:35:28.046Z,3.70
2019-01-05T02:38:01.452Z,3.70
2019-01-05T02:43:17.431Z,3.70
2019-01-05T02:48:46.594Z,3.70
2019-01-05T02:51:19.916Z,3.70
2019-01-05T02:53:58.504Z,3.70
2019-01-05T02:59:35.080Z,3.60
2019-01-05T03:07:56.068Z,3.70
2019-01-05T03:16:14.957Z,3.60
2019-01-05T03:18:53.510Z,3.60
2019-01-05T03:21:31.841Z,3.60
2019-01-05T03:24:08.449Z,3.60
2019-01-05T03:26:45.722Z,3.60
2019-01-05T03:34:54.977Z,3.50
2019-01-05T03:43:03.998Z,3.60
2019-01-05T03:45:43.842Z,3.60
2019-01-05T03:48:19.802Z,3.50
2019-01-05T03:55:28.714Z,3.50
2019-01-05T04:00:55.880Z,3.50
2019-01-05T04:03:37.242Z,3.50
2019-01-05T04:06:15.901Z,3.50
2019-01-05T04:09:04.109Z,3.60
2019-01-05T04:17:13.765Z,3.40
2019-01-05T04:19:58.149Z,3.40
2019-01-05T04:25:33.950Z,3.40
2019-01-05T04:30:54.729Z,3.50
2019-01-05T04:33:40.548Z,3.40
2019-01-05T04:36:29.206Z,3.50
2019-01-05T04:39:06.773Z,3.50
2019-01-05T04:44:29.506Z,3.40
2019-01-05T04:52:44.752Z,3.30
2019-01-05T04:58:21.939Z,3.30
2019-01-05T05:01:00.581Z,3.30
2019-01-05T05:03:39.837Z,3.20
2019-01-05T05:06:18.529Z,3.30
2019-01-05T05:11:51.758Z,3.20
2019-01-05T05:14:30.630Z,3.20
2019-01-05T05:17:10.198Z,3.10
2019-01-05T05:19:48.363Z,3.10
2019-01-05T05:22:39.551Z,3.10
2019-01-05T05:28:10.983Z,3.20
2019-01-05T05:30:50.242Z,3.20
2019-01-05T05:33:32.507Z,3.20
2019-01-05T05:36:17.988Z,3.20
2019-01-05T05:41:48.707Z,3.30
2019-01-05T05:50:04.265Z,3.20
2019-01-05T06:00:56.886Z,3.20
2019-01-05T06:06:22.682Z,3.20
2019-01-05T06:09:00.108Z,3.10
2019-01-05T06:17:11.672Z,3.20
2019-01-05T06:19:46.184Z,3.20
2019-01-05T06:22:38.553Z,3.10
2019-01-05T06:28:16.898Z,3.10
2019-01-05T06:31:02.059Z,3.10
2019-01-05T06:33:38.871Z,3.10
2019-01-05T06:39:14.278Z,3.00
2019-01-05T06:42:01.672Z,3.00
2019-01-05T06:47:29.221Z,3.10
2019-01-05T06:50:13.660Z,3.00
2019-01-05T07:01:18.846Z,3.10
2019-01-05T07:03:56.969Z,3.10
2019-01-05T07:06:32.259Z,3.00
2019-01-05T07:09:18.790Z,3.00
2019-01-05T07:11:59.044Z,3.00
2019-01-05T07:14:38.084Z,3.00
2019-01-05T07:23:02.348Z,3.10
2019-01-05T07:28:36.851Z,3.00
2019-01-05T07:31:17.857Z,3.00
2019-01-05T07:34:06.450Z,3.10
2019-01-05T07:36:44.193Z,3.00
2019-01-05T07:39:24.034Z,3.00
2019-01-05T07:44:48.962Z,3.10
2019-01-05T07:50:29.190Z,3.20
2019-01-05T08:01:35.411Z,3.20
2019-01-05T08:10:00.384Z,3.20
2019-01-05T08:15:36.746Z,3.30
2019-01-05T08:18:12.589Z,3.20
2019-01-05T08:20:59.029Z,3.30
2019-01-05T08:23:42.115Z,3.20
2019-01-05T08:26:23.411Z,3.20
2019-01-05T08:31:59.363Z,3.30
2019-01-05T08:34:37.798Z,3.30
2019-01-05T08:37:30.326Z,3.30
2019-01-05T08:43:14.309Z,3.30
2019-01-05T08:48:48.582Z,3.40
2019-01-05T08:51:29.204Z,3.40
2019-01-05T08:56:56.274Z,3.40
2019-01-05T08:59:39.943Z,3.40
2019-01-05T09:02:31.152Z,3.40
2019-01-05T09:10:54.946Z,3.60
2019-01-05T09:16:20.060Z,3.70
2019-01-05T09:21:53.456Z,3.70
2019-01-05T09:24:33.827Z,3.70
2019-01-05T09:30:03.204Z,3.70
2019-01-05T09:32:46.343Z,3.70
2019-01-05T09:35:38.630Z,3.70
2019-01-05T09:41:02.241Z,3.80
2019-01-05T09:43:46.356Z,3.80
2019-01-05T09:49:12.303Z,3.90
2019-01-05T09:51:52.880Z,3.90
2019-01-05T09:57:14.481Z,4.00
2019-01-05T10:05:35.270Z,4.10
2019-01-05T10:13:53.450Z,4.10
2019-01-05T10:16:42.906Z,4.10
2019-01-05T10:22:14.668Z,4.10
2019-01-05T10:25:04.364Z,4.10
2019-01-05T10:30:26.710Z,4.10
2019-01-05T10:35:51.773Z,4.10
2019-01-05T10:41:24.193Z,4.20
2019-01-05T10:46:59.804Z,4.20
2019-01-05T10:49:37.172Z,4.20
2019-01-05T10:52:26.906Z,4.20
2019-01-05T10:58:05.666Z,4.30
2019-01-05T11:00:49.520Z,4.30
2019-01-05T11:06:23.134Z,4.40
2019-01-05T11:09:07.939Z,4.40
2019-01-05T11:11:50.920Z,4.40
2019-01-05T11:14:34.376Z,4.40
2019-01-05T11:17:10.831Z,4.40
2019-01-05T11:25:20.105Z,4.50
2019-01-05T11:27:52.390Z,4.40
2019-01-05T11:30:29.584Z,4.30
2019-01-05T11:33:08.706Z,4.30
2019-01-05T11:38:39.122Z,4.30
2019-01-05T11:41:16.845Z,4.20
2019-01-05T11:44:00.901Z,4.20
2019-01-05T11:49:32.797Z,4.30
2019-01-05T11:57:41.888Z,4.40
2019-01-05T12:00:21.969Z,4.40
2019-01-05T12:05:55.892Z,4.40
2019-01-05T12:11:29.835Z,4.50
2019-01-05T12:14:03.035Z,4.40
2019-01-05T12:19:27.352Z,4.50
2019-01-05T12:22:03.257Z,4.50
2019-01-05T12:27:37.822Z,4.50
2019-01-05T12:30:18.200Z,4.50
2019-01-05T12:33:05.633Z,4.40
2019-01-05T12:35:49.458Z,4.40
2019-01-05T12:38:23.304Z,4.40
2019-01-05T12:43:48.147Z,4.50
2019-01-05T12:46:22.872Z,4.50
2019-01-05T12:49:02.095Z,4.50
2019-01-05T12:51:44.254Z,4.50
2019-01-05T12:54:27.439Z,4.60
2019-01-05T12:57:10.894Z,4.60
2019-01-05T13:02:39.056Z,4.70
2019-01-05T13:05:18.719Z,4.80
2019-01-05T13:08:03.040Z,4.90
2019-01-05T13:10:44.770Z,4.90
2019-01-05T13:13:24.472Z,4.80
2019-01-05T13:18:53.381Z,4.80
2019-01-05T13:21:40.522Z,4.80
2019-01-05T13:27:08.092Z,4.80
2019-01-05T13:29:59.238Z,4.80
2019-01-05T13:35:35.270Z,4.70
2019-01-05T13:38:10.604Z,4.70
2019-01-05T13:40:53.682Z,4.70
2019-01-05T13:43:40.250Z,4.70
2019-01-05T13:46:18.219Z,4.60
2019-01-05T13:48:53.994Z,4.70
2019-01-05T13:54:06.108Z,4.70
2019-01-05T13:56:37.888Z,4.70
2019-01-05T13:59:12.225Z,4.70
2019-01-05T14:01:46.005Z,4.70
2019-01-05T14:04:14.902Z,4.70
2019-01-05T14:06:44.604Z,4.70
2019-01-05T14:09:14.315Z,4.80
2019-01-05T14:11:43.162Z,4.80
2019-01-05T14:14:15.781Z,4.80
2019-01-05T14:16:45.370Z,4.80
2019-01-05T14:19:14.988Z,4.90
2019-01-05T14:21:47.486Z,4.90
2019-01-05T14:24:18.247Z,5.00
2019-01-05T14:26:49.870Z,5.00
2019-01-05T14:29:19.460Z,5.00
2019-01-05T14:31:50.009Z,5.00
2019-01-05T14:34:22.888Z,5.00
2019-01-05T14:36:51.724Z,5.00
2019-01-05T14:39:21.472Z,5.00
2019-01-05T14:44:27.642Z,5.00
2019-01-05T14:46:58.162Z,5.00
2019-01-05T14:49:27.068Z,5.00
2019-01-05T14:51:57.772Z,5.10
2019-01-05T14:54:30.615Z,5.10
2019-01-05T14:57:04.879Z,5.00
2019-01-05T14:59:36.562Z,5.10
2019-01-05T15:02:11.011Z,5.10
2019-01-05T15:04:39.963Z,5.10
2019-01-05T15:07:14.450Z,5.10
2019-01-05T15:09:43.989Z,5.10
2019-01-05T15:12:18.317Z,5.10
2019-01-05T15:14:47.184Z,5.10
2019-01-05T15:17:20.832Z,5.10
2019-01-05T15:19:55.377Z,5.10
2019-01-05T15:22:29.692Z,5.10
2019-01-05T15:25:03.989Z,5.10
2019-01-05T15:27:32.935Z,5.10
2019-01-05T15:30:02.534Z,5.10
2019-01-05T15:32:36.985Z,5.10
2019-01-05T15:35:07.313Z,5.10
2019-01-05T15:37:37.733Z,5.10
2019-01-05T15:40:06.632Z,5.10
2019-01-05T15:42:40.106Z,5.10
2019-01-05T15:45:08.999Z,5.20
2019-01-05T15:47:40.550Z,5.20
2019-01-05T15:50:09.558Z,5.20
2019-01-05T15:52:39.253Z,5.20
2019-01-05T15:55:14.400Z,5.20
2019-01-05T15:57:49.014Z,5.20
2019-01-05T16:00:20.604Z,5.20
2019-01-05T16:02:55.131Z,5.30
2019-01-05T16:05:25.823Z,5.20
2019-01-05T16:08:01.238Z,5.20
2019-01-05T16:10:34.753Z,5.20
2019-01-05T16:13:07.441Z,5.20
2019-01-05T16:15:38.919Z,5.20
2019-01-05T16:18:13.292Z,5.20
2019-01-05T16:20:45.916Z,5.30
2019-01-05T16:23:20.233Z,5.20
2019-01-05T16:25:49.915Z,5.20
2019-01-05T16:28:18.763Z,5.20
2019-01-05T16:30:49.568Z,5.20
2019-01-05T16:33:20.163Z,5.20
2019-01-05T16:35:53.618Z,5.20
2019-01-05T16:38:23.382Z,5.20
2019-01-05T16:40:53.099Z,5.20
2019-01-05T16:43:28.352Z,5.20
2019-01-05T16:45:59.156Z,5.30
2019-01-05T16:48:29.906Z,5.30
2019-01-05T16:51:00.509Z,5.30
2019-01-05T16:53:34.996Z,5.30
2019-01-05T16:56:04.674Z,5.30
2019-01-05T16:58:39.122Z,5.20
2019-01-05T17:01:13.395Z,5.20
2019-01-05T17:06:20.318Z,5.30
2019-01-05T17:08:51.029Z,5.30
2019-01-05T17:13:56.914Z,5.30
2019-01-05T17:16:30.546Z,5.30
2019-01-05T17:19:04.972Z,5.30
2019-01-05T17:21:37.780Z,5.30
2019-01-05T17:24:12.057Z,5.30
2019-01-05T17:26:45.717Z,5.40
2019-01-05T17:29:15.285Z,5.40
2019-01-05T17:31:47.087Z,5.50
2019-01-05T17:34:21.504Z,5.50
2019-01-05T17:36:50.335Z,5.50
2019-01-05T17:39:20.952Z,5.60
2019-01-05T17:41:51.497Z,5.60
2019-01-05T17:44:21.165Z,5.50
2019-01-05T17:46:50.760Z,5.60
2019-01-05T17:49:25.617Z,5.70
2019-01-05T17:51:56.190Z,5.80
2019-01-05T17:54:27.833Z,5.90
2019-01-05T17:56:58.559Z,6.10
2019-01-05T17:59:31.095Z,6.20
2019-01-05T18:02:05.716Z,6.30
2019-01-05T18:04:36.229Z,6.30
2019-01-05T18:07:10.575Z,6.30
2019-01-05T18:09:44.874Z,6.30
2019-01-05T18:12:16.797Z,6.30
2019-01-05T18:14:48.419Z,6.30
2019-01-05T18:17:23.224Z,6.30
2019-01-05T18:19:54.001Z,6.30
2019-01-05T18:22:28.280Z,6.30
2019-01-05T18:25:02.585Z,6.40
2019-01-05T18:27:33.213Z,6.40
2019-01-05T18:30:03.843Z,6.40
2019-01-05T18:32:34.499Z,6.30
2019-01-05T18:35:05.116Z,6.30
2019-01-05T18:37:35.790Z,6.30
2019-01-05T18:40:10.648Z,6.30
2019-01-05T18:42:45.001Z,6.30
2019-01-05T18:45:14.544Z,6.20
2019-01-05T18:47:46.145Z,6.20
2019-01-05T18:50:18.835Z,6.10
2019-01-05T18:52:53.578Z,6.20
2019-01-05T18:55:25.314Z,6.20
2019-01-05T18:57:54.910Z,6.30
2019-01-05T19:00:27.651Z,6.20
2019-01-05T19:02:59.270Z,6.20
2019-01-05T19:05:34.264Z,6.20
2019-01-05T19:08:06.952Z,6.20
2019-01-05T19:10:35.809Z,6.20
2019-01-05T19:13:06.603Z,6.20
2019-01-05T19:15:40.948Z,6.20
2019-01-05T19:18:10.726Z,6.30
2019-01-05T19:20:40.567Z,6.30
2019-01-05T19:23:14.860Z,6.30
2019-01-05T19:25:45.470Z,6.30
2019-01-05T19:28:18.771Z,6.30
2019-01-05T19:30:53.251Z,6.30
2019-01-05T19:33:23.126Z,6.30
2019-01-05T19:35:52.726Z,6.30
2019-01-05T19:38:25.506Z,6.40
2019-01-05T19:40:55.240Z,6.30
2019-01-05T19:43:25.116Z,6.40
2019-01-05T19:45:59.542Z,6.40
2019-01-05T19:48:34.527Z,6.40
2019-01-05T19:51:08.366Z,6.40
2019-01-05T19:53:37.961Z,6.30
2019-01-05T19:56:12.354Z,6.30
2019-01-05T19:58:45.028Z,6.30
2019-01-05T20:01:19.348Z,6.30
2019-01-05T20:03:53.715Z,6.30
2019-01-05T20:06:22.575Z,6.30
2019-01-05T20:08:52.280Z,6.40
2019-01-05T20:11:24.055Z,6.30
2019-01-05T20:13:54.594Z,6.30
2019-01-05T20:16:27.365Z,6.30
2019-01-05T20:19:01.632Z,6.20
2019-01-05T20:21:33.433Z,6.30
2019-01-05T20:24:07.879Z,6.20
2019-01-05T20:26:37.545Z,6.20
2019-01-05T20:31:42.100Z,6.20
2019-01-05T20:34:11.013Z,6.30
2019-01-05T20:36:42.397Z,6.20
2019-01-05T20:39:12.003Z,6.20
2019-01-05T20:41:42.825Z,6.30
2019-01-05T20:44:14.578Z,6.20
2019-01-05T20:46:43.403Z,6.20
2019-01-05T20:49:17.778Z,6.20
2019-01-05T20:51:48.526Z,6.20
2019-01-05T20:54:23.736Z,6.20
2019-01-05T20:56:58.390Z,6.20
2019-01-05T20:59:32.883Z,6.30
2019-01-05T21:02:08.006Z,6.30
2019-01-05T21:04:37.964Z,6.40
2019-01-05T21:07:06.807Z,6.30
2019-01-05T21:09:36.483Z,6.30
2019-01-05T21:12:11.018Z,6.30
2019-01-05T21:14:45.592Z,6.30
2019-01-05T21:17:19.963Z,6.20
2019-01-05T21:19:49.525Z,6.20
2019-01-05T21:22:24.175Z,6.20
2019-01-05T21:24:55.876Z,6.20
2019-01-05T21:27:24.729Z,6.20
2019-01-05T21:29:59.193Z,6.20
2019-01-05T21:32:33.723Z,6.20
2019-01-05T21:35:02.587Z,6.20
2019-01-05T21:37:32.425Z,6.20
2019-01-05T21:40:02.963Z,6.20
2019-01-05T21:42:32.673Z,6.20
2019-01-05T21:45:07.184Z,6.10
2019-01-05T21:47:39.568Z,6.10
2019-01-05T21:50:10.335Z,6.10
2019-01-05T21:52:42.978Z,6.10
2019-01-05T21:55:17.450Z,6.00
2019-01-05T21:57:47.235Z,6.00
2019-01-05T22:00:17.923Z,6.00
2019-01-05T22:02:49.507Z,6.00
2019-01-05T22:05:21.129Z,6.00
2019-01-05T22:07:50.028Z,6.00
2019-01-05T22:10:20.547Z,6.00
2019-01-05T22:12:49.468Z,6.00
2019-01-05T22:15:21.047Z,6.00
2019-01-05T22:17:55.365Z,5.90
2019-01-05T22:20:25.949Z,5.90
2019-01-05T22:23:00.334Z,5.90
2019-01-05T22:25:34.653Z,5.90
2019-01-05T22:28:06.259Z,5.80
2019-01-05T22:30:39.851Z,5.80
2019-01-05T22:33:11.368Z,5.80
2019-01-05T22:35:42.996Z,5.80
2019-01-05T22:38:16.829Z,5.80
2019-01-05T22:40:50.337Z,5.70
2019-01-05T22:43:20.986Z,5.70
2019-01-05T22:45:50.560Z,5.70
2019-01-05T22:48:22.225Z,5.70
2019-01-05T22:50:56.533Z,5.70
2019-01-05T22:53:27.152Z,5.70
2019-01-05T22:55:56.779Z,5.60
2019-01-05T22:58:26.352Z,5.60
2019-01-05T23:00:55.177Z,5.60
2019-01-05T23:03:24.879Z,5.70
2019-01-05T23:05:55.537Z,5.70
2019-01-05T23:08:25.334Z,5.60
2019-01-05T23:10:54.170Z,5.60
2019-01-05T23:13:26.974Z,5.60
2019-01-05T23:15:58.829Z,5.60
2019-01-05T23:18:30.517Z,5.70
2019-01-05T23:21:03.267Z,5.70
2019-01-05T23:23:35.995Z,5.60
2019-01-05T23:26:05.701Z,5.60
2019-01-05T23:28:37.259Z,5.60
2019-01-05T23:31:06.849Z,5.60
2019-01-05T23:33:40.625Z,5.60
2019-01-05T23:36:10.412Z,5.60
2019-01-05T23:38:50.156Z,5.60
2019-01-05T23:41:15.198Z,5.60
2019-01-05T23:43:49.818Z,5.60
2019-01-05T23:46:19.579Z,5.60
2019-01-05T23:48:54.222Z,5.60
2019-01-05T23:51:23.153Z,5.60
2019-01-05T23:53:53.881Z,5.60
2019-01-05T23:56:25.549Z,5.60
2019-01-05T23:59:00.030Z,5.60
